Gerber, California
Current Conditions -  °F | °C
As of 5:54 AM on Saturday 20 Dec 2014 (Local Time) from KRBL Reporting Station
Haze Haze  
Wind Chill: 11°   Ceiling: 300
Heat Index: 11°   Visibility: 4mi
Dew Point: 11°   Wind: 12mph
Humidity: 97%   Direction: 160°SSE
Pressure: 30.12"   Gusts: NA
Location:  40.06°N, 122.15°W
Report Text: KRBL 201354Z AUTO 16010KT 4SM BR OVC003 11/11 A3012 RMK AO2 SLP200 T01110106
Loading
Personal Weather Stations






























Interactive Weather Map New forecast layout! Learn more

10-Day Weather Forecast

Advertisements
Track Severe Weather on mobile